createdAt,value
2018-01-07T00:00:14.609Z,13.43
2018-01-07T00:02:44.101Z,11.57
2018-01-07T00:05:13.590Z,14.03
2018-01-07T00:07:43.096Z,12.70
2018-01-07T00:10:12.576Z,11.50
2018-01-07T00:12:42.408Z,11.77
2018-01-07T00:15:11.907Z,12.80
2018-01-07T00:17:43.159Z,13.43
2018-01-07T00:20:12.373Z,12.40
2018-01-07T00:22:42.638Z,12.37
2018-01-07T00:25:12.736Z,15.70
2018-01-07T00:27:42.221Z,14.07
2018-01-07T00:30:11.727Z,14.17
2018-01-07T00:32:42.360Z,14.60
2018-01-07T00:35:11.841Z,15.90
2018-01-07T00:37:43.023Z,15.20
2018-01-07T00:40:12.509Z,14.97
2018-01-07T00:42:42.006Z,16.27
2018-01-07T00:45:13.292Z,16.53
2018-01-07T00:47:42.776Z,16.00
2018-01-07T00:50:12.265Z,16.70
2018-01-07T00:52:42.036Z,15.67
2018-01-07T00:55:11.650Z,14.90
2018-01-07T00:57:42.288Z,15.43
2018-01-07T01:00:13.286Z,16.47
2018-01-07T01:02:42.768Z,17.80
2018-01-07T01:05:12.252Z,14.73
2018-01-07T01:07:41.455Z,15.37
2018-01-07T01:10:12.188Z,16.80
2018-01-07T01:12:42.439Z,14.37
2018-01-07T01:15:12.204Z,18.63
2018-01-07T01:17:42.460Z,15.87
2018-01-07T01:20:12.722Z,15.03
2018-01-07T01:22:42.269Z,17.97
2018-01-07T01:25:11.764Z,18.47
2018-01-07T01:27:43.717Z,16.00
2018-01-07T01:30:13.017Z,18.53
2018-01-07T01:32:42.536Z,16.77
2018-01-07T01:35:12.433Z,20.07
2018-01-07T01:37:41.926Z,16.73
2018-01-07T01:40:12.851Z,19.23
2018-01-07T01:42:43.100Z,18.43
2018-01-07T01:45:13.730Z,18.77
2018-01-07T01:47:43.227Z,19.03
2018-01-07T01:50:12.717Z,17.80
2018-01-07T01:52:43.547Z,21.80
2018-01-07T01:55:13.032Z,18.63
2018-01-07T01:57:42.587Z,21.97
2018-01-07T02:00:12.348Z,22.40
2018-01-07T02:02:42.324Z,20.60
2018-01-07T02:05:11.549Z,19.87
2018-01-07T02:07:42.104Z,20.97
2018-01-07T02:10:12.365Z,21.43
2018-01-07T02:12:41.604Z,19.73
2018-01-07T02:15:13.268Z,18.40
2018-01-07T02:17:42.480Z,18.77
2018-01-07T02:20:11.981Z,18.00
2018-01-07T02:22:41.892Z,21.33
2018-01-07T02:25:13.197Z,19.67
2018-01-07T02:27:42.704Z,17.97
2018-01-07T02:30:12.245Z,17.37
2018-01-07T02:32:41.764Z,15.20
2018-01-07T02:35:13.386Z,17.50
2018-01-07T02:37:42.919Z,19.73
2018-01-07T02:40:12.599Z,18.97
2018-01-07T02:42:42.388Z,15.27
2018-01-07T02:45:11.964Z,18.67
2018-01-07T02:47:43.951Z,16.73
2018-01-07T02:50:13.409Z,17.00
2018-01-07T02:52:42.640Z,15.20
2018-01-07T02:55:12.497Z,16.93
2018-01-07T02:57:42.028Z,18.43
2018-01-07T03:00:11.405Z,16.47
2018-01-07T03:02:42.945Z,14.70
2018-01-07T03:05:12.433Z,16.10
2018-01-07T03:07:42.075Z,16.53
2018-01-07T03:10:11.988Z,16.30
2018-01-07T03:12:41.552Z,16.07
2018-01-07T03:15:12.563Z,14.43
2018-01-07T03:17:42.078Z,14.90
2018-01-07T03:20:11.588Z,15.33
2018-01-07T03:22:43.428Z,16.83
2018-01-07T03:25:12.914Z,16.13
2018-01-07T03:27:42.395Z,14.87
2018-01-07T03:30:13.076Z,14.67
2018-01-07T03:32:42.563Z,14.67
2018-01-07T03:35:12.085Z,14.87
2018-01-07T03:37:43.556Z,15.03
2018-01-07T03:40:13.043Z,16.23
2018-01-07T03:42:42.539Z,13.63
2018-01-07T03:45:12.344Z,15.00
2018-01-07T03:47:41.835Z,13.13
2018-01-07T03:50:13.387Z,12.67
2018-01-07T03:52:42.867Z,13.60
2018-01-07T03:55:12.401Z,15.83
2018-01-07T03:57:42.280Z,14.53
2018-01-07T04:00:11.788Z,13.43
2018-01-07T04:02:44.112Z,15.07
2018-01-07T04:05:13.607Z,14.33
2018-01-07T04:07:43.124Z,15.77
2018-01-07T04:10:13.027Z,14.07
2018-01-07T04:12:42.504Z,13.23
2018-01-07T04:15:12.026Z,14.37
2018-01-07T04:17:41.865Z,13.30
2018-01-07T04:20:12.103Z,13.37
2018-01-07T04:22:42.311Z,14.57
2018-01-07T04:25:11.816Z,16.47
2018-01-07T04:27:43.543Z,15.23
2018-01-07T04:30:13.031Z,13.20
2018-01-07T04:32:42.520Z,12.77
2018-01-07T04:35:12.436Z,14.50
2018-01-07T04:37:41.979Z,14.17
2018-01-07T04:40:11.553Z,14.03
2018-01-07T04:42:41.143Z,13.63
2018-01-07T04:45:13.424Z,15.00
2018-01-07T04:47:43.226Z,16.40
2018-01-07T04:50:12.704Z,15.63
2018-01-07T04:52:42.195Z,15.00
2018-01-07T04:55:11.981Z,16.40
2018-01-07T04:57:41.553Z,16.23
2018-01-07T05:00:11.936Z,15.20
2018-01-07T05:02:42.947Z,15.20
2018-01-07T05:05:12.781Z,14.30
2018-01-07T05:07:42.292Z,15.40
2018-01-07T05:10:11.792Z,17.77
2018-01-07T05:12:43.276Z,14.67
2018-01-07T05:15:12.786Z,15.43
2018-01-07T05:17:42.332Z,17.43
2018-01-07T05:20:11.851Z,14.67
2018-01-07T05:22:43.371Z,14.73
2018-01-07T05:25:13.220Z,16.23
2018-01-07T05:27:43.208Z,14.50
2018-01-07T05:30:12.859Z,14.77
2018-01-07T05:32:42.363Z,17.10
2018-01-07T05:35:12.723Z,17.03
2018-01-07T05:37:42.523Z,15.63
2018-01-07T05:40:12.016Z,15.77
2018-01-07T05:42:41.612Z,14.77
2018-01-07T05:45:11.892Z,15.53
2018-01-07T05:47:42.899Z,14.03
2018-01-07T05:50:12.735Z,15.03
2018-01-07T05:52:42.316Z,15.37
2018-01-07T05:55:12.101Z,15.73
2018-01-07T05:57:42.343Z,15.13
2018-01-07T06:00:11.851Z,14.73
2018-01-07T06:02:43.190Z,12.53
2018-01-07T06:05:13.118Z,14.37
2018-01-07T06:07:42.609Z,14.73
2018-01-07T06:10:12.212Z,13.50
2018-01-07T06:12:42.025Z,17.47
2018-01-07T06:15:11.529Z,14.80
2018-01-07T06:17:42.261Z,14.63
2018-01-07T06:20:11.759Z,14.87
2018-01-07T06:22:42.407Z,12.67
2018-01-07T06:25:11.537Z,9.30
2018-01-07T06:27:41.843Z,12.60
2018-01-07T06:30:12.774Z,13.40
2018-01-07T06:32:42.304Z,13.10
2018-01-07T06:35:11.856Z,13.87
2018-01-07T06:37:42.781Z,13.20
2018-01-07T06:40:12.603Z,13.87
2018-01-07T06:42:42.104Z,17.17
2018-01-07T06:45:11.727Z,13.20
2018-01-07T06:47:43.405Z,15.00
2018-01-07T06:50:12.603Z,14.43
2018-01-07T06:52:42.095Z,12.70
2018-01-07T06:55:11.958Z,8.00
2018-01-07T06:57:42.846Z,13.60
2018-01-07T07:00:12.472Z,12.00
2018-01-07T07:02:42.734Z,15.23
2018-01-07T07:05:13.355Z,13.97
2018-01-07T07:07:42.860Z,14.50
2018-01-07T07:10:12.353Z,12.33
2018-01-07T07:12:42.205Z,12.20
2018-01-07T07:15:11.829Z,11.67
2018-01-07T07:17:43.474Z,13.47
2018-01-07T07:20:12.968Z,11.60
2018-01-07T07:22:42.487Z,13.00
2018-01-07T07:25:12.275Z,12.90
2018-01-07T07:27:41.813Z,13.43
2018-01-07T07:30:13.378Z,13.03
2018-01-07T07:32:42.861Z,11.60
2018-01-07T07:35:12.190Z,10.20
2018-01-07T07:37:42.039Z,11.10
2018-01-07T07:40:11.549Z,9.60
2018-01-07T07:42:43.459Z,9.97
2018-01-07T07:45:13.684Z,11.20
2018-01-07T07:47:43.581Z,10.23
2018-01-07T07:50:13.071Z,13.13
2018-01-07T07:52:42.600Z,10.97
2018-01-07T07:55:12.487Z,10.43
2018-01-07T07:57:42.025Z,11.10
2018-01-07T08:00:11.519Z,10.47
2018-01-07T08:02:41.389Z,9.10
2018-01-07T08:05:10.860Z,10.73
2018-01-07T08:07:40.341Z,16.70
2018-01-07T08:10:10.222Z,10.10
2018-01-07T08:12:41.184Z,9.67
2018-01-07T08:15:11.880Z,12.97
2018-01-07T08:17:43.173Z,8.73
2018-01-07T08:20:12.652Z,13.13
2018-01-07T08:22:42.912Z,10.90
2018-01-07T08:25:12.454Z,10.90
2018-01-07T08:27:41.641Z,11.57
2018-01-07T08:30:12.511Z,10.50
2018-01-07T08:32:42.163Z,10.07
2018-01-07T08:35:11.693Z,9.97
2018-01-07T08:37:43.431Z,10.13
2018-01-07T08:40:12.932Z,9.67
2018-01-07T08:42:42.422Z,8.53
2018-01-07T08:45:12.271Z,7.63
2018-01-07T08:47:41.738Z,8.60
2018-01-07T08:50:13.337Z,9.50
2018-01-07T08:52:42.820Z,7.83
2018-01-07T08:55:12.299Z,6.93
2018-01-07T08:57:42.960Z,7.27
2018-01-07T09:00:12.441Z,10.97
2018-01-07T09:02:41.709Z,9.20
2018-01-07T09:05:13.252Z,6.80
2018-01-07T09:07:42.789Z,9.57
2018-01-07T09:10:12.272Z,7.53
2018-01-07T09:12:42.044Z,11.90
2018-01-07T09:15:11.563Z,6.40
2018-01-07T09:17:42.869Z,6.17
2018-01-07T09:20:12.373Z,7.17
2018-01-07T09:22:43.529Z,6.30
2018-01-07T09:25:13.021Z,7.97
2018-01-07T09:27:42.525Z,7.13
2018-01-07T09:30:12.066Z,7.37
2018-01-07T09:32:41.775Z,7.37
2018-01-07T09:35:13.301Z,8.67
2018-01-07T09:37:42.442Z,5.97
2018-01-07T09:40:11.938Z,10.03
2018-01-07T09:42:42.591Z,6.60
2018-01-07T09:45:12.096Z,5.90
2018-01-07T09:47:41.598Z,6.00
2018-01-07T09:50:12.909Z,8.13
2018-01-07T09:52:42.455Z,5.20
2018-01-07T09:55:11.979Z,9.50
2018-01-07T09:57:42.649Z,6.87
2018-01-07T10:00:12.237Z,7.47
2018-01-07T10:02:41.752Z,5.57
2018-01-07T10:05:13.563Z,8.20
2018-01-07T10:07:43.028Z,5.60
2018-01-07T10:10:12.581Z,5.27
2018-01-07T10:12:42.456Z,5.20
2018-01-07T10:15:12.104Z,5.50
2018-01-07T10:17:41.778Z,6.97
2018-01-07T10:20:13.531Z,5.93
2018-01-07T10:22:43.019Z,4.70
2018-01-07T10:25:12.510Z,5.70
2018-01-07T10:27:43.139Z,5.27
2018-01-07T10:30:12.612Z,6.73
2018-01-07T10:32:41.866Z,4.90
2018-01-07T10:35:15.127Z,4.87
2018-01-07T10:37:44.600Z,5.53
2018-01-07T10:40:14.408Z,5.60
2018-01-07T10:42:44.667Z,8.23
2018-01-07T10:45:14.420Z,5.17
2018-01-07T10:47:44.143Z,4.00
2018-01-07T10:50:13.691Z,4.63
2018-01-07T10:52:43.228Z,5.70
2018-01-07T10:55:13.785Z,4.60
2018-01-07T10:57:43.547Z,4.93
2018-01-07T11:00:13.071Z,4.83
2018-01-07T11:02:42.576Z,4.17
2018-01-07T11:05:12.099Z,4.33
2018-01-07T11:07:41.612Z,3.90
2018-01-07T11:10:13.359Z,7.47
2018-01-07T11:12:44.348Z,5.47
2018-01-07T11:15:13.567Z,4.90
2018-01-07T11:17:43.805Z,4.57
2018-01-07T11:20:13.628Z,4.57
2018-01-07T11:22:43.128Z,4.47
2018-01-07T11:25:12.694Z,4.50
2018-01-07T11:27:42.480Z,5.47
2018-01-07T11:30:12.177Z,7.73
2018-01-07T11:32:41.669Z,4.47
2018-01-07T11:35:13.122Z,3.80
2018-01-07T11:37:43.535Z,4.83
2018-01-07T11:40:13.349Z,4.57
2018-01-07T11:42:42.844Z,3.80
2018-01-07T11:45:12.361Z,3.73
2018-01-07T11:47:41.921Z,6.63
2018-01-07T11:50:12.853Z,3.33
2018-01-07T11:52:43.120Z,3.73
2018-01-07T11:55:12.728Z,3.70
2018-01-07T11:57:42.269Z,3.37
2018-01-07T12:00:12.810Z,4.03
2018-01-07T12:02:42.049Z,4.70
2018-01-07T12:05:11.209Z,4.47
2018-01-07T12:07:43.590Z,5.40
2018-01-07T12:10:13.069Z,3.43
2018-01-07T12:12:42.713Z,4.77
2018-01-07T12:15:12.422Z,6.50
2018-01-07T12:17:41.937Z,3.43
2018-01-07T12:20:13.962Z,4.17
2018-01-07T12:22:43.443Z,3.73
2018-01-07T12:25:13.269Z,5.37
2018-01-07T12:27:43.523Z,6.53
2018-01-07T12:30:13.108Z,5.03
2018-01-07T12:32:43.096Z,3.77
2018-01-07T12:35:12.712Z,5.07
2018-01-07T12:37:42.981Z,5.37
2018-01-07T12:40:12.488Z,4.30
2018-01-07T12:42:42.747Z,5.77
2018-01-07T12:45:13.013Z,4.27
2018-01-07T12:47:42.503Z,6.87
2018-01-07T12:50:11.989Z,4.93
2018-01-07T12:52:41.690Z,4.03
2018-01-07T12:55:11.187Z,4.10
2018-01-07T12:57:40.705Z,4.00
2018-01-07T13:00:09.901Z,4.83
2018-01-07T13:02:39.462Z,5.33
2018-01-07T13:05:08.957Z,5.83
2018-01-07T13:07:40.675Z,4.60
2018-01-07T13:10:10.170Z,4.70
2018-01-07T13:12:41.476Z,4.67
2018-01-07T13:15:10.960Z,4.07
2018-01-07T13:17:42.261Z,4.60
2018-01-07T13:20:11.761Z,6.07
2018-01-07T13:22:47.607Z,4.17
2018-01-07T13:25:17.093Z,5.57
2018-01-07T13:27:46.617Z,4.73
2018-01-07T13:30:16.407Z,4.50
2018-01-07T13:32:45.889Z,5.23
2018-01-07T13:35:15.399Z,4.77
2018-01-07T13:37:45.301Z,4.97
2018-01-07T13:40:18.220Z,4.60
2018-01-07T13:42:48.219Z,6.20
2018-01-07T13:45:17.733Z,5.60
2018-01-07T13:47:47.223Z,4.30
2018-01-07T13:50:16.726Z,7.80
2018-01-07T13:52:46.196Z,5.00
2018-01-07T13:55:15.803Z,4.80
2018-01-07T13:57:45.670Z,5.30
2018-01-07T14:00:15.212Z,4.47
2018-01-07T14:02:44.715Z,5.17
2018-01-07T14:05:14.200Z,4.87
2018-01-07T14:07:43.679Z,5.97
2018-01-07T14:10:13.255Z,5.60
2018-01-07T14:12:42.785Z,6.20
2018-01-07T14:15:11.957Z,5.20
2018-01-07T14:17:42.828Z,5.77
2018-01-07T14:20:13.092Z,5.40
2018-01-07T14:22:42.625Z,5.43
2018-01-07T14:25:12.530Z,7.27
2018-01-07T14:27:42.017Z,7.17
2018-01-07T14:30:11.729Z,5.90
2018-01-07T14:32:42.452Z,5.97
2018-01-07T14:35:11.946Z,6.27
2018-01-07T14:37:44.058Z,8.70
2018-01-07T14:40:13.291Z,6.17
2018-01-07T14:42:42.814Z,5.47
2018-01-07T14:45:12.320Z,5.80
2018-01-07T14:47:41.813Z,5.43
2018-01-07T14:50:12.074Z,5.80
2018-01-07T14:52:41.564Z,7.20
2018-01-07T14:55:12.138Z,7.03
2018-01-07T14:57:41.617Z,6.57
2018-01-07T15:00:12.863Z,7.30
2018-01-07T15:02:42.413Z,6.03
2018-01-07T15:05:11.944Z,4.80
2018-01-07T15:07:41.744Z,5.87
2018-01-07T15:10:11.236Z,6.73
2018-01-07T15:12:40.719Z,5.83
2018-01-07T15:15:11.394Z,7.27
2018-01-07T15:17:41.715Z,7.00
2018-01-07T15:20:11.216Z,8.53
2018-01-07T15:22:40.700Z,6.30
2018-01-07T15:25:10.245Z,6.03
2018-01-07T15:27:39.788Z,5.80
2018-01-07T15:30:09.362Z,6.87
2018-01-07T15:32:39.433Z,6.20
2018-01-07T15:35:09.676Z,6.03
2018-01-07T15:37:40.217Z,6.57
2018-01-07T15:40:09.928Z,6.60
2018-01-07T15:42:39.577Z,6.87
2018-01-07T15:45:09.085Z,5.90
2018-01-07T15:47:39.414Z,7.20
2018-01-07T15:50:09.297Z,6.57
2018-01-07T15:52:40.525Z,6.13
2018-01-07T15:55:10.031Z,6.57
2018-01-07T15:57:39.519Z,6.60
2018-01-07T16:00:09.035Z,6.10
2018-01-07T16:02:39.300Z,6.40
2018-01-07T16:05:08.804Z,7.47
2018-01-07T16:07:38.317Z,6.10
2018-01-07T16:10:08.239Z,6.07
2018-01-07T16:12:37.443Z,7.80
2018-01-07T16:15:09.921Z,6.23
2018-01-07T16:17:39.554Z,6.67
2018-01-07T16:20:09.177Z,6.00
2018-01-07T16:22:38.725Z,6.37
2018-01-07T16:25:08.225Z,6.23
2018-01-07T16:27:38.086Z,6.37
2018-01-07T16:30:07.628Z,8.10
2018-01-07T16:32:37.135Z,7.23
2018-01-07T16:35:06.972Z,6.60
2018-01-07T16:37:36.457Z,6.30
2018-01-07T16:40:05.969Z,5.90
2018-01-07T16:42:36.218Z,7.00
2018-01-07T16:45:05.700Z,6.73
2018-01-07T16:47:35.212Z,7.33
2018-01-07T16:50:04.385Z,7.00
2018-01-07T16:52:34.134Z,6.63
2018-01-07T16:55:03.459Z,6.87
2018-01-07T16:57:33.357Z,6.90
2018-01-07T17:00:02.925Z,6.97
2018-01-07T17:02:32.157Z,7.00
2018-01-07T17:05:02.417Z,7.50
2018-01-07T17:07:32.025Z,6.40
2018-01-07T17:10:01.530Z,6.53
2018-01-07T17:12:31.158Z,8.60
2018-01-07T17:15:00.658Z,6.93
2018-01-07T17:17:31.345Z,8.10
2018-01-07T17:20:00.837Z,6.57
2018-01-07T17:22:30.411Z,9.10
2018-01-07T17:25:00.186Z,6.53
2018-01-07T17:27:29.704Z,8.30
2018-01-07T17:29:59.973Z,7.63
2018-01-07T17:32:29.493Z,7.03
2018-01-07T17:34:58.806Z,6.47
2018-01-07T17:37:29.387Z,7.30
2018-01-07T17:39:58.875Z,6.80
2018-01-07T17:42:28.381Z,9.83
2018-01-07T17:44:58.313Z,7.10
2018-01-07T17:47:27.821Z,6.33
2018-01-07T17:49:57.370Z,6.43
2018-01-07T17:52:27.637Z,5.67
2018-01-07T17:54:57.203Z,6.40
2018-01-07T17:57:26.850Z,5.73
2018-01-07T17:59:56.324Z,7.57
2018-01-07T18:02:25.804Z,6.73
2018-01-07T18:04:55.610Z,6.77
2018-01-07T18:07:25.093Z,7.40
2018-01-07T18:09:54.580Z,7.23
2018-01-07T18:12:24.846Z,6.60
2018-01-07T18:14:54.325Z,6.30
2018-01-07T18:17:23.816Z,6.80
2018-01-07T18:19:53.623Z,7.13
2018-01-07T18:22:23.388Z,6.20
2018-01-07T18:24:53.169Z,7.53
2018-01-07T18:27:22.805Z,6.07
2018-01-07T18:29:52.309Z,6.73
2018-01-07T18:32:22.227Z,6.60
2018-01-07T18:34:51.842Z,5.97
2018-01-07T18:37:21.400Z,6.40
2018-01-07T18:39:51.278Z,5.43
2018-01-07T18:42:20.951Z,6.20
2018-01-07T18:44:50.184Z,7.20
2018-01-07T18:47:19.998Z,6.43
2018-01-07T18:49:49.529Z,5.90
2018-01-07T18:52:19.071Z,6.07
2018-01-07T18:54:48.727Z,5.40
2018-01-07T18:57:18.220Z,5.87
2018-01-07T18:59:48.963Z,5.80
2018-01-07T19:02:19.225Z,6.50
2018-01-07T19:04:48.848Z,5.77
2018-01-07T19:07:19.477Z,5.20
2018-01-07T19:09:48.961Z,6.17
2018-01-07T19:12:18.668Z,6.47
2018-01-07T19:14:49.298Z,5.23
2018-01-07T19:17:18.788Z,6.43
2018-01-07T19:19:48.291Z,5.60
2018-01-07T19:22:18.902Z,6.00
2018-01-07T19:24:48.387Z,6.73
2018-01-07T19:27:17.888Z,5.40
2018-01-07T19:29:47.467Z,6.50
2018-01-07T19:32:16.963Z,7.93
2018-01-07T19:34:47.494Z,5.93
2018-01-07T19:37:17.097Z,5.63
2018-01-07T19:39:46.584Z,5.73
2018-01-07T19:42:17.219Z,5.50
2018-01-07T19:44:46.704Z,6.63
2018-01-07T19:47:16.185Z,8.47
2018-01-07T19:49:46.826Z,5.20
2018-01-07T19:52:16.318Z,6.07
2018-01-07T19:54:45.834Z,5.37
2018-01-07T19:57:15.309Z,3.97
2018-01-07T19:59:44.895Z,5.87
2018-01-07T20:02:14.423Z,4.83
2018-01-07T20:04:46.713Z,6.33
2018-01-07T20:07:16.227Z,4.40
2018-01-07T20:09:46.476Z,6.33
2018-01-07T20:12:16.247Z,4.83
2018-01-07T20:14:45.750Z,7.37
2018-01-07T20:17:15.255Z,5.33
2018-01-07T20:19:45.094Z,7.50
2018-01-07T20:22:14.578Z,4.20
2018-01-07T20:24:44.074Z,6.67
2018-01-07T20:27:14.185Z,4.93
2018-01-07T20:29:43.673Z,4.67
2018-01-07T20:32:13.397Z,4.00
2018-01-07T20:34:44.001Z,5.27
2018-01-07T20:37:13.489Z,5.03
2018-01-07T20:39:43.152Z,4.67
2018-01-07T20:42:13.437Z,5.00
2018-01-07T20:44:43.094Z,5.63
2018-01-07T20:47:12.654Z,4.30
2018-01-07T20:49:42.467Z,5.53
2018-01-07T20:52:11.340Z,5.03
2018-01-07T20:54:40.888Z,4.60
2018-01-07T20:57:10.713Z,4.30
2018-01-07T20:59:40.689Z,4.40
2018-01-07T21:02:10.578Z,9.13
2018-01-07T21:04:41.165Z,4.50
2018-01-07T21:07:10.978Z,4.87
2018-01-07T21:09:39.793Z,6.20
2018-01-07T21:12:09.855Z,6.37
2018-01-07T21:14:40.409Z,4.27
2018-01-07T21:17:09.963Z,4.40
2018-01-07T21:19:39.497Z,4.47
2018-01-07T21:22:09.371Z,6.70
2018-01-07T21:24:40.542Z,7.87
2018-01-07T21:27:09.740Z,5.83
2018-01-07T21:29:39.202Z,5.80
2018-01-07T21:32:08.702Z,6.33
2018-01-07T21:34:38.206Z,4.70
2018-01-07T21:37:07.341Z,4.23
2018-01-07T21:39:36.829Z,5.67
2018-01-07T21:42:06.370Z,5.17
2018-01-07T21:44:36.012Z,5.50
2018-01-07T21:47:05.546Z,5.00
2018-01-07T21:49:35.064Z,6.20
2018-01-07T21:52:04.553Z,5.10
2018-01-07T21:54:34.093Z,5.60
2018-01-07T21:57:03.595Z,7.50
2018-01-07T22:02:43.920Z,5.63
2018-01-07T22:05:15.540Z,5.63
2018-01-07T22:07:45.074Z,5.20
2018-01-07T22:10:14.188Z,7.40
2018-01-07T22:12:43.708Z,5.93
2018-01-07T22:15:13.582Z,5.27
2018-01-07T22:17:43.033Z,6.40
2018-01-07T22:20:13.633Z,7.37
2018-01-07T22:22:43.320Z,5.53
2018-01-07T22:25:13.964Z,8.37
2018-01-07T22:27:43.445Z,6.07
2018-01-07T22:30:12.942Z,6.07
2018-01-07T22:32:43.723Z,5.57
2018-01-07T22:35:13.211Z,6.93
2018-01-07T22:37:42.999Z,5.90
2018-01-07T22:40:12.484Z,5.40
2018-01-07T22:42:41.966Z,5.67
2018-01-07T22:45:13.742Z,9.37
2018-01-07T22:47:48.653Z,6.97
2018-01-07T22:50:18.444Z,6.33
2018-01-07T22:52:47.941Z,6.07
2018-01-07T22:55:17.448Z,7.40
2018-01-07T22:57:47.439Z,6.20
2018-01-07T23:00:16.923Z,6.73
2018-01-07T23:02:46.193Z,6.37
2018-01-07T23:05:16.024Z,6.83
2018-01-07T23:07:45.609Z,6.97
2018-01-07T23:10:15.302Z,8.00
2018-01-07T23:12:45.131Z,7.13
2018-01-07T23:15:14.611Z,6.23
2018-01-07T23:17:44.588Z,7.20
2018-01-07T23:20:14.450Z,7.43
2018-01-07T23:22:43.952Z,7.00
2018-01-07T23:25:14.188Z,7.33
2018-01-07T23:27:43.424Z,8.40
2018-01-07T23:30:12.921Z,7.03
2018-01-07T23:32:42.710Z,9.13
2018-01-07T23:35:12.191Z,8.43
2018-01-07T23:37:41.659Z,9.10
2018-01-07T23:40:13.265Z,7.03
2018-01-07T23:42:42.754Z,7.10
2018-01-07T23:45:12.363Z,9.13
2018-01-07T23:47:42.153Z,6.63
2018-01-07T23:50:11.637Z,11.57
2018-01-07T23:52:40.855Z,7.53
2018-01-07T23:55:11.561Z,7.60
2018-01-07T23:57:41.961Z,10.43
